createdAt,value
2018-11-26T00:01:54.073Z,24.20
2018-11-26T00:04:23.655Z,24.20
2018-11-26T00:06:51.511Z,24.20
2018-11-26T00:09:19.270Z,24.20
2018-11-26T00:11:48.486Z,24.10
2018-11-26T00:14:17.084Z,24.10
2018-11-26T00:16:45.032Z,24.10
2018-11-26T00:19:14.166Z,24.10
2018-11-26T00:21:44.182Z,24.10
2018-11-26T00:24:12.102Z,24.10
2018-11-26T00:26:41.047Z,24.10
2018-11-26T00:29:10.119Z,24.10
2018-11-26T00:31:39.142Z,24.10
2018-11-26T00:34:08.149Z,24.10
2018-11-26T00:36:36.154Z,24.10
2018-11-26T00:39:06.490Z,24.00
2018-11-26T00:41:34.462Z,24.00
2018-11-26T00:44:04.187Z,24.00
2018-11-26T00:46:33.169Z,23.90
2018-11-26T00:49:01.726Z,23.90
2018-11-26T00:51:30.166Z,23.90
2018-11-26T00:54:00.854Z,23.90
2018-11-26T00:56:30.671Z,23.80
2018-11-26T00:58:58.409Z,23.80
2018-11-26T01:01:27.630Z,23.80
2018-11-26T01:03:55.654Z,23.80
2018-11-26T01:06:23.591Z,23.80
2018-11-26T01:08:52.885Z,23.80
2018-11-26T01:11:23.022Z,23.70
2018-11-26T01:13:55.301Z,23.70
2018-11-26T01:16:23.444Z,23.70
2018-11-26T01:18:55.776Z,23.70
2018-11-26T01:21:24.963Z,23.70
2018-11-26T01:23:53.639Z,23.70
2018-11-26T01:26:26.313Z,23.60
2018-11-26T01:28:54.242Z,23.70
2018-11-26T01:31:24.105Z,23.60
2018-11-26T01:33:52.840Z,23.60
2018-11-26T01:36:23.768Z,23.60
2018-11-26T01:38:53.051Z,23.60
2018-11-26T01:41:23.703Z,23.50
2018-11-26T01:43:53.973Z,23.50
2018-11-26T01:46:22.277Z,23.50
2018-11-26T01:48:50.836Z,23.50
2018-11-26T01:51:18.759Z,23.50
2018-11-26T01:53:47.746Z,23.40
2018-11-26T01:56:16.478Z,23.40
2018-11-26T01:58:44.407Z,23.40
2018-11-26T02:01:13.549Z,23.40
2018-11-26T02:03:42.497Z,23.40
2018-11-26T02:06:10.238Z,23.40
2018-11-26T02:08:38.754Z,23.40
2018-11-26T02:11:07.209Z,23.40
2018-11-26T02:13:35.869Z,23.40
2018-11-26T02:16:05.324Z,23.30
2018-11-26T02:18:33.124Z,23.30
2018-11-26T02:21:02.300Z,23.30
2018-11-26T02:23:30.147Z,23.30
2018-11-26T02:25:58.915Z,23.30
2018-11-26T02:28:27.223Z,23.20
2018-11-26T02:30:56.679Z,23.30
2018-11-26T02:33:24.479Z,23.20
2018-11-26T02:35:52.262Z,23.20
2018-11-26T02:38:20.023Z,23.20
2018-11-26T02:40:47.960Z,23.20
2018-11-26T02:43:15.769Z,23.20
2018-11-26T02:45:43.671Z,23.20
2018-11-26T02:48:11.467Z,23.20
2018-11-26T02:50:39.727Z,23.10
2018-11-26T02:53:07.601Z,23.10
2018-11-26T02:55:35.371Z,23.10
2018-11-26T02:58:03.194Z,23.10
2018-11-26T03:00:32.033Z,23.10
2018-11-26T03:03:00.381Z,23.10
2018-11-26T03:05:29.973Z,23.00
2018-11-26T03:07:58.142Z,23.00
2018-11-26T03:10:26.497Z,23.00
2018-11-26T03:12:54.099Z,23.00
2018-11-26T03:15:21.982Z,23.00
2018-11-26T03:17:49.916Z,23.00
2018-11-26T03:20:32.613Z,22.90
2018-11-26T03:23:00.287Z,23.00
2018-11-26T03:25:28.646Z,22.90
2018-11-26T03:27:56.368Z,22.90
2018-11-26T03:30:24.879Z,22.90
2018-11-26T03:32:52.590Z,22.90
2018-11-26T03:35:20.318Z,22.90
2018-11-26T03:37:48.011Z,22.90
2018-11-26T03:40:15.840Z,22.80
2018-11-26T03:42:43.803Z,22.80
2018-11-26T03:45:14.365Z,22.80
2018-11-26T03:47:42.140Z,22.80
2018-11-26T03:50:10.786Z,22.80
2018-11-26T03:52:39.531Z,22.80
2018-11-26T03:55:08.753Z,22.80
2018-11-26T03:57:36.658Z,22.70
2018-11-26T04:00:09.145Z,22.60
2018-11-26T04:02:37.009Z,22.60
2018-11-26T04:05:07.074Z,22.50
2018-11-26T04:07:37.665Z,22.50
2018-11-26T04:10:10.271Z,22.50
2018-11-26T04:12:41.065Z,22.40
2018-11-26T04:15:14.540Z,22.30
2018-11-26T04:17:44.765Z,22.30
2018-11-26T04:20:16.604Z,22.20
2018-11-26T04:22:47.483Z,22.20
2018-11-26T04:25:18.732Z,22.10
2018-11-26T04:27:49.449Z,22.10
2018-11-26T04:30:18.691Z,22.10
2018-11-26T04:32:49.421Z,22.00
2018-11-26T04:35:19.053Z,21.90
2018-11-26T04:37:50.573Z,21.90
2018-11-26T04:40:21.566Z,21.80
2018-11-26T04:42:50.002Z,21.80
2018-11-26T04:45:17.718Z,21.80
2018-11-26T04:47:45.394Z,21.70
2018-11-26T04:50:13.080Z,21.70
2018-11-26T04:52:40.665Z,21.70
2018-11-26T04:55:09.783Z,21.70
2018-11-26T04:57:42.142Z,21.60
2018-11-26T05:00:08.375Z,21.60
2018-11-26T05:02:36.725Z,21.60
2018-11-26T05:05:05.069Z,21.50
2018-11-26T05:07:33.399Z,21.50
2018-11-26T05:10:01.258Z,21.50
2018-11-26T05:12:29.027Z,21.40
2018-11-26T05:14:56.750Z,21.40
2018-11-26T05:17:24.399Z,21.40
2018-11-26T05:19:53.043Z,21.40
2018-11-26T05:22:21.275Z,21.30
2018-11-26T05:24:49.068Z,21.30
2018-11-26T05:27:16.668Z,21.20
2018-11-26T05:29:44.438Z,21.20
2018-11-26T05:32:12.228Z,21.20
2018-11-26T05:34:40.249Z,21.20
2018-11-26T05:37:07.940Z,21.20
2018-11-26T05:39:35.631Z,21.10
2018-11-26T05:42:03.506Z,21.10
2018-11-26T05:44:31.369Z,21.10
2018-11-26T05:46:59.074Z,21.10
2018-11-26T05:49:26.814Z,21.10
2018-11-26T05:51:54.554Z,21.10
2018-11-26T05:54:22.494Z,21.00
2018-11-26T05:56:50.168Z,21.00
2018-11-26T05:59:17.786Z,21.00
2018-11-26T06:01:45.438Z,20.90
2018-11-26T06:04:13.663Z,20.90
2018-11-26T06:06:41.555Z,20.90
2018-11-26T06:09:10.130Z,20.90
2018-11-26T06:11:39.760Z,20.90
2018-11-26T06:14:07.682Z,20.90
2018-11-26T06:16:36.383Z,20.80
2018-11-26T06:19:05.023Z,20.80
2018-11-26T06:21:32.854Z,20.80
2018-11-26T06:24:00.556Z,20.80
2018-11-26T06:26:28.294Z,20.80
2018-11-26T06:28:55.970Z,20.80
2018-11-26T06:31:23.734Z,20.80
2018-11-26T06:33:52.726Z,20.70
2018-11-26T06:36:21.007Z,20.70
2018-11-26T06:38:48.727Z,20.70
2018-11-26T06:41:16.636Z,20.70
2018-11-26T06:43:44.389Z,20.70
2018-11-26T06:46:12.140Z,20.70
2018-11-26T06:48:39.807Z,20.60
2018-11-26T06:51:07.431Z,20.60
2018-11-26T06:53:35.201Z,20.60
2018-11-26T06:56:03.943Z,20.60
2018-11-26T06:58:31.684Z,20.50
2018-11-26T07:00:59.385Z,20.50
2018-11-26T07:03:27.108Z,20.50
2018-11-26T07:05:55.448Z,20.50
2018-11-26T07:08:23.209Z,20.50
2018-11-26T07:10:51.638Z,20.50
2018-11-26T07:13:19.461Z,20.50
2018-11-26T07:15:47.133Z,20.60
2018-11-26T07:18:15.015Z,20.70
2018-11-26T07:20:42.745Z,20.80
2018-11-26T07:23:10.484Z,21.00
2018-11-26T07:25:38.788Z,21.10
2018-11-26T07:28:07.511Z,21.30
2018-11-26T07:30:35.134Z,21.50
2018-11-26T07:33:03.117Z,21.70
2018-11-26T07:35:31.749Z,21.90
2018-11-26T07:37:59.429Z,22.10
2018-11-26T07:40:27.189Z,22.30
2018-11-26T07:43:02.622Z,22.40
2018-11-26T07:45:30.334Z,22.70
2018-11-26T07:47:57.954Z,22.90
2018-11-26T07:50:25.679Z,23.10
2018-11-26T07:52:53.494Z,23.30
2018-11-26T07:55:21.731Z,23.50
2018-11-26T07:57:49.717Z,23.70
2018-11-26T08:00:18.901Z,23.80
2018-11-26T08:02:47.113Z,23.90
2018-11-26T08:05:17.181Z,23.90
2018-11-26T08:07:44.960Z,24.00
2018-11-26T08:10:14.713Z,24.10
2018-11-26T08:12:42.877Z,24.10
2018-11-26T08:15:16.101Z,24.20
2018-11-26T08:17:44.551Z,24.20
2018-11-26T08:20:12.519Z,24.30
2018-11-26T08:22:40.962Z,24.30
2018-11-26T08:25:10.737Z,24.40
2018-11-26T08:27:39.507Z,24.40
2018-11-26T08:30:14.418Z,24.50
2018-11-26T08:32:42.723Z,24.50
2018-11-26T08:35:11.946Z,24.50
2018-11-26T08:37:45.617Z,24.60
2018-11-26T08:40:17.847Z,24.60
2018-11-26T08:42:51.179Z,24.60
2018-11-26T08:45:24.703Z,24.60
2018-11-26T08:47:56.354Z,24.70
2018-11-26T08:50:24.037Z,24.70
2018-11-26T08:52:53.226Z,24.70
2018-11-26T08:55:21.551Z,24.70
2018-11-26T08:57:49.282Z,24.80
2018-11-26T09:00:17.080Z,24.80
2018-11-26T09:02:44.974Z,24.80
2018-11-26T09:05:23.889Z,24.80
2018-11-26T09:07:46.097Z,24.80
2018-11-26T09:10:14.373Z,24.80
2018-11-26T09:12:41.986Z,24.80
2018-11-26T09:15:10.150Z,24.90
2018-11-26T09:17:38.184Z,24.80
2018-11-26T09:20:09.914Z,24.90
2018-11-26T09:22:37.745Z,24.80
2018-11-26T09:25:08.571Z,24.90
2018-11-26T09:27:37.209Z,24.80
2018-11-26T09:30:09.564Z,24.80
2018-11-26T09:32:38.045Z,24.80
2018-11-26T09:35:08.435Z,24.80
2018-11-26T09:37:36.285Z,24.80
2018-11-26T09:40:05.551Z,24.80
2018-11-26T09:42:33.382Z,24.80
2018-11-26T09:45:01.168Z,24.80
2018-11-26T09:47:29.499Z,24.80
2018-11-26T09:49:57.715Z,24.90
2018-11-26T09:52:25.640Z,25.00
2018-11-26T09:54:53.351Z,25.00
2018-11-26T09:57:21.055Z,24.90
2018-11-26T09:59:48.861Z,24.90
2018-11-26T10:02:16.529Z,24.80
2018-11-26T10:04:44.909Z,24.80
2018-11-26T10:07:14.176Z,24.80
2018-11-26T10:09:42.150Z,24.70
2018-11-26T10:12:09.909Z,24.70
2018-11-26T10:14:38.019Z,24.70
2018-11-26T10:17:05.731Z,24.70
2018-11-26T10:19:33.683Z,24.70
2018-11-26T10:22:01.413Z,24.70
2018-11-26T10:24:29.056Z,24.70
2018-11-26T10:26:57.004Z,24.70
2018-11-26T10:29:24.887Z,24.60
2018-11-26T10:31:52.687Z,24.60
2018-11-26T10:34:20.572Z,24.50
2018-11-26T10:36:48.902Z,24.40
2018-11-26T10:39:16.926Z,24.30
2018-11-26T10:41:44.825Z,24.30
2018-11-26T10:44:12.555Z,24.20
2018-11-26T10:46:40.476Z,24.20
2018-11-26T10:49:08.190Z,24.10
2018-11-26T10:51:35.834Z,24.10
2018-11-26T10:54:03.636Z,24.00
2018-11-26T10:56:31.476Z,24.00
2018-11-26T10:58:59.245Z,23.90
2018-11-26T11:01:32.650Z,23.90
2018-11-26T11:04:00.254Z,23.80
2018-11-26T11:06:28.148Z,23.80
2018-11-26T11:08:55.965Z,23.70
2018-11-26T11:11:24.187Z,23.70
2018-11-26T11:13:51.739Z,23.60
2018-11-26T11:16:19.559Z,23.60
2018-11-26T11:18:47.307Z,23.50
2018-11-26T11:21:16.012Z,23.50
2018-11-26T11:23:44.188Z,23.60
2018-11-26T11:26:12.864Z,23.60
2018-11-26T11:28:40.696Z,23.60
2018-11-26T11:31:08.479Z,23.60
2018-11-26T11:33:36.208Z,23.60
2018-11-26T11:36:04.077Z,23.60
2018-11-26T11:38:31.795Z,23.60
2018-11-26T11:41:00.133Z,23.60
2018-11-26T11:43:28.316Z,23.60
2018-11-26T11:45:56.362Z,23.50
2018-11-26T11:48:28.260Z,23.50
2018-11-26T11:50:56.132Z,23.50
2018-11-26T11:53:23.917Z,23.40
2018-11-26T11:55:51.756Z,23.40
2018-11-26T11:58:19.588Z,23.40
2018-11-26T12:00:48.282Z,23.40
2018-11-26T12:03:19.144Z,23.40
2018-11-26T12:05:47.527Z,23.40
2018-11-26T12:08:15.459Z,23.40
2018-11-26T12:10:44.678Z,23.40
2018-11-26T12:13:14.340Z,23.30
2018-11-26T12:15:44.904Z,23.20
2018-11-26T12:18:13.068Z,23.20
2018-11-26T12:20:42.376Z,23.10
2018-11-26T12:23:11.765Z,23.10
2018-11-26T12:25:40.435Z,23.10
2018-11-26T12:28:08.229Z,23.10
2018-11-26T12:30:39.433Z,23.10
2018-11-26T12:33:07.512Z,23.10
2018-11-26T12:35:36.440Z,23.10
2018-11-26T12:38:04.525Z,23.00
2018-11-26T12:40:32.313Z,23.00
2018-11-26T12:43:01.802Z,22.90
2018-11-26T12:45:32.506Z,22.90
2018-11-26T12:48:01.977Z,22.90
2018-11-26T12:50:29.997Z,22.90
2018-11-26T12:52:59.229Z,22.90
2018-11-26T12:55:27.178Z,22.80
2018-11-26T12:57:55.717Z,22.80
2018-11-26T13:00:25.271Z,22.80
2018-11-26T13:03:12.297Z,22.80
2018-11-26T13:05:41.680Z,22.80
2018-11-26T13:08:09.893Z,22.80
2018-11-26T13:10:38.483Z,22.80
2018-11-26T13:13:08.653Z,22.80
2018-11-26T13:15:38.055Z,22.70
2018-11-26T13:18:06.516Z,22.70
2018-11-26T13:20:34.267Z,22.60
2018-11-26T13:23:02.120Z,22.60
2018-11-26T13:25:31.642Z,22.50
2018-11-26T13:28:01.519Z,22.50
2018-11-26T13:30:31.824Z,22.40
2018-11-26T13:33:00.930Z,22.40
2018-11-26T13:35:29.949Z,22.30
2018-11-26T13:37:58.100Z,22.30
2018-11-26T13:40:26.836Z,22.30
2018-11-26T13:42:54.622Z,22.30
2018-11-26T13:45:31.936Z,22.30
2018-11-26T13:47:59.765Z,22.20
2018-11-26T13:50:32.382Z,22.20
2018-11-26T13:53:00.767Z,22.10
2018-11-26T13:55:29.341Z,22.10
2018-11-26T13:57:57.161Z,22.00
2018-11-26T14:00:25.078Z,22.00
2018-11-26T14:02:52.736Z,22.00
2018-11-26T14:05:20.475Z,22.00
2018-11-26T14:07:48.371Z,22.00
2018-11-26T14:10:18.601Z,22.00
2018-11-26T14:12:54.704Z,22.00
2018-11-26T14:15:22.551Z,22.00
2018-11-26T14:17:50.321Z,22.00
2018-11-26T14:20:19.035Z,22.10
2018-11-26T14:22:47.012Z,22.10
2018-11-26T14:25:17.100Z,22.10
2018-11-26T14:27:46.256Z,22.20
2018-11-26T14:30:19.498Z,22.20
2018-11-26T14:32:47.672Z,22.30
2018-11-26T14:35:15.650Z,22.40
2018-11-26T14:37:43.806Z,22.50
2018-11-26T14:40:15.534Z,22.60
2018-11-26T14:42:43.994Z,22.70
2018-11-26T14:45:13.368Z,22.80
2018-11-26T14:47:41.521Z,22.90
2018-11-26T14:50:11.021Z,22.90
2018-11-26T14:52:39.822Z,23.10
2018-11-26T14:55:10.088Z,23.20
2018-11-26T14:57:38.326Z,23.20
2018-11-26T15:00:09.600Z,23.30
2018-11-26T15:02:38.965Z,23.40
2018-11-26T15:05:08.878Z,23.40
2018-11-26T15:07:39.525Z,23.50
2018-11-26T15:10:17.413Z,23.60
2018-11-26T15:12:46.263Z,23.60
2018-11-26T15:15:18.064Z,23.70
2018-11-26T15:17:47.063Z,23.70
2018-11-26T15:20:26.816Z,23.80
2018-11-26T15:22:56.938Z,23.80
2018-11-26T15:25:30.779Z,23.90
2018-11-26T15:28:03.961Z,23.90
2018-11-26T15:30:33.306Z,24.00
2018-11-26T15:33:02.665Z,24.10
2018-11-26T15:35:31.712Z,24.10
2018-11-26T15:38:01.959Z,24.20
2018-11-26T15:40:32.360Z,24.20
2018-11-26T15:43:02.523Z,24.20
2018-11-26T15:45:33.361Z,24.30
2018-11-26T15:48:05.535Z,24.30
2018-11-26T15:50:35.658Z,24.40
2018-11-26T15:53:05.893Z,24.40
2018-11-26T15:55:35.313Z,24.50
2018-11-26T15:58:04.372Z,24.50
2018-11-26T16:00:33.043Z,24.60
2018-11-26T16:03:01.709Z,24.70
2018-11-26T16:05:32.051Z,24.70
2018-11-26T16:08:03.986Z,24.70
2018-11-26T16:10:32.952Z,24.70
2018-11-26T16:13:04.024Z,24.70
2018-11-26T16:15:41.393Z,24.80
2018-11-26T16:18:11.780Z,24.80
2018-11-26T16:20:41.087Z,24.80
2018-11-26T16:23:11.072Z,24.80
2018-11-26T16:25:44.208Z,24.90
2018-11-26T16:28:15.232Z,24.90
2018-11-26T16:30:43.653Z,24.90
2018-11-26T16:33:13.519Z,24.90
2018-11-26T16:35:42.693Z,25.00
2018-11-26T16:38:12.032Z,25.10
2018-11-26T16:40:41.253Z,25.20
2018-11-26T16:43:10.603Z,25.30
2018-11-26T16:45:41.692Z,25.40
2018-11-26T16:48:13.155Z,25.40
2018-11-26T16:50:41.843Z,25.50
2018-11-26T16:53:10.948Z,25.50
2018-11-26T16:55:39.830Z,25.60
2018-11-26T16:58:09.393Z,25.70
2018-11-26T17:00:38.907Z,25.70
2018-11-26T17:03:07.514Z,25.70
2018-11-26T17:05:37.483Z,25.70
2018-11-26T17:08:09.684Z,25.80
2018-11-26T17:10:40.134Z,25.80
2018-11-26T17:13:11.695Z,25.80
2018-11-26T17:15:41.930Z,25.90
2018-11-26T17:18:10.603Z,25.90
2018-11-26T17:20:39.900Z,26.00
2018-11-26T17:23:09.185Z,26.00
2018-11-26T17:25:37.762Z,26.00
2018-11-26T17:28:07.119Z,26.10
2018-11-26T17:30:36.608Z,26.10
2018-11-26T17:33:07.013Z,26.10
2018-11-26T17:35:37.198Z,26.10
2018-11-26T17:38:07.994Z,26.10
2018-11-26T17:40:36.511Z,26.20
2018-11-26T17:43:05.729Z,26.20
2018-11-26T17:45:35.687Z,26.20
2018-11-26T17:48:05.374Z,26.20
2018-11-26T17:50:40.489Z,26.20
2018-11-26T17:53:16.029Z,26.20
2018-11-26T17:55:50.908Z,26.30
2018-11-26T17:58:22.118Z,26.20
2018-11-26T18:00:54.724Z,26.20
2018-11-26T18:03:23.796Z,26.30
2018-11-26T18:05:53.236Z,26.40
2018-11-26T18:08:22.795Z,26.40
2018-11-26T18:10:51.492Z,26.40
2018-11-26T18:13:21.315Z,26.40
2018-11-26T18:15:50.661Z,26.40
2018-11-26T18:18:20.191Z,26.40
2018-11-26T18:20:49.070Z,26.40
2018-11-26T18:23:17.045Z,26.40
2018-11-26T18:25:46.674Z,26.40
2018-11-26T18:28:16.685Z,26.20
2018-11-26T18:30:48.635Z,26.10
2018-11-26T18:33:16.380Z,26.00
2018-11-26T18:35:44.824Z,25.90
2018-11-26T18:38:13.079Z,25.80
2018-11-26T18:40:42.766Z,25.70
2018-11-26T18:43:10.540Z,25.70
2018-11-26T18:45:39.839Z,25.50
2018-11-26T18:48:08.544Z,25.60
2018-11-26T18:50:36.462Z,25.50
2018-11-26T18:53:04.536Z,25.40
2018-11-26T18:55:32.351Z,25.40
2018-11-26T18:58:00.180Z,25.30
2018-11-26T19:00:30.411Z,25.20
2018-11-26T19:02:58.692Z,25.10
2018-11-26T19:05:26.625Z,25.10
2018-11-26T19:07:54.542Z,25.00
2018-11-26T19:10:24.362Z,25.00
2018-11-26T19:12:58.585Z,24.90
2018-11-26T19:15:29.270Z,24.90
2018-11-26T19:17:59.932Z,24.80
2018-11-26T19:20:27.824Z,24.70
2018-11-26T19:22:56.467Z,24.70
2018-11-26T19:25:24.837Z,24.70
2018-11-26T19:27:53.864Z,24.60
2018-11-26T19:30:23.269Z,24.50
2018-11-26T19:32:49.624Z,24.40
2018-11-26T19:35:18.086Z,24.40
2018-11-26T19:37:46.645Z,24.30
2018-11-26T19:40:15.841Z,24.20
2018-11-26T19:42:45.240Z,24.20
2018-11-26T19:45:17.879Z,24.20
2018-11-26T19:47:46.333Z,24.10
2018-11-26T19:50:15.204Z,24.10
2018-11-26T19:52:44.958Z,24.10
2018-11-26T19:55:14.230Z,24.00
2018-11-26T19:57:42.194Z,24.00
2018-11-26T20:00:13.850Z,24.00
2018-11-26T20:02:42.149Z,23.90
2018-11-26T20:05:15.820Z,23.90
2018-11-26T20:07:46.546Z,23.80
2018-11-26T20:10:14.427Z,23.80
2018-11-26T20:12:42.142Z,23.80
2018-11-26T20:15:12.747Z,23.70
2018-11-26T20:17:41.101Z,23.70
2018-11-26T20:20:09.386Z,23.60
2018-11-26T20:22:38.851Z,23.70
2018-11-26T20:25:11.002Z,23.60
2018-11-26T20:27:40.817Z,23.50
2018-11-26T20:30:13.432Z,23.50
2018-11-26T20:32:43.759Z,23.50
2018-11-26T20:35:11.859Z,23.40
2018-11-26T20:37:40.064Z,23.40
2018-11-26T20:40:09.761Z,23.40
2018-11-26T20:42:39.037Z,23.30
2018-11-26T20:45:12.365Z,23.20
2018-11-26T20:47:40.130Z,23.20
2018-11-26T20:50:12.997Z,23.20
2018-11-26T20:52:40.748Z,23.10
2018-11-26T20:55:11.028Z,23.10
2018-11-26T20:57:38.979Z,23.10
2018-11-26T21:00:10.626Z,23.00
2018-11-26T21:02:38.653Z,23.00
2018-11-26T21:05:06.751Z,23.00
2018-11-26T21:07:34.519Z,22.90
2018-11-26T21:10:02.985Z,22.90
2018-11-26T21:12:30.633Z,22.80
2018-11-26T21:14:58.896Z,22.80
2018-11-26T21:17:26.555Z,22.80
2018-11-26T21:19:54.368Z,22.70
2018-11-26T21:22:22.828Z,22.70
2018-11-26T21:24:50.558Z,22.70
2018-11-26T21:27:18.283Z,22.60
2018-11-26T21:29:46.028Z,22.60
2018-11-26T21:32:13.857Z,22.60
2018-11-26T21:34:41.596Z,22.50
2018-11-26T21:37:09.249Z,22.50
2018-11-26T21:39:37.701Z,22.50
2018-11-26T21:42:05.617Z,22.40
2018-11-26T21:44:33.406Z,22.40
2018-11-26T21:47:01.097Z,22.40
2018-11-26T21:49:29.439Z,22.40
2018-11-26T21:51:57.136Z,22.40
2018-11-26T21:54:24.832Z,22.30
2018-11-26T21:56:52.560Z,22.30
2018-11-26T21:59:20.419Z,22.20
2018-11-26T22:01:48.165Z,22.30
2018-11-26T22:04:15.956Z,22.20
2018-11-26T22:06:43.697Z,22.20
2018-11-26T22:09:11.447Z,22.10
2018-11-26T22:11:39.746Z,22.10
2018-11-26T22:14:07.584Z,22.10
2018-11-26T22:16:35.263Z,22.10
2018-11-26T22:19:03.637Z,22.00
2018-11-26T22:21:31.427Z,22.00
2018-11-26T22:23:59.209Z,22.00
2018-11-26T22:26:27.048Z,22.00
2018-11-26T22:28:54.908Z,21.90
2018-11-26T22:31:22.704Z,21.90
2018-11-26T22:33:51.209Z,21.90
2018-11-26T22:36:19.007Z,21.90
2018-11-26T22:38:46.758Z,21.90
2018-11-26T22:41:14.468Z,21.80
2018-11-26T22:43:42.429Z,21.80
2018-11-26T22:46:10.199Z,21.70
2018-11-26T22:48:38.304Z,21.70
2018-11-26T22:51:05.981Z,21.70
2018-11-26T22:53:33.707Z,21.60
2018-11-26T22:56:01.471Z,21.70
2018-11-26T22:58:29.283Z,21.60
2018-11-26T23:00:57.571Z,21.60
2018-11-26T23:03:26.207Z,21.60
2018-11-26T23:05:54.879Z,21.50
2018-11-26T23:08:22.603Z,21.60
2018-11-26T23:10:50.321Z,21.50
2018-11-26T23:13:18.020Z,21.50
2018-11-26T23:15:46.347Z,21.50
2018-11-26T23:18:14.150Z,21.50
2018-11-26T23:20:41.929Z,21.40
2018-11-26T23:23:09.627Z,21.40
2018-11-26T23:25:37.336Z,21.40
2018-11-26T23:28:05.542Z,21.40
2018-11-26T23:30:33.292Z,21.40
2018-11-26T23:33:02.999Z,21.30
2018-11-26T23:35:30.802Z,21.30
2018-11-26T23:37:58.487Z,21.30
2018-11-26T23:40:26.232Z,21.20
2018-11-26T23:42:53.918Z,21.20
2018-11-26T23:45:29.962Z,21.20
2018-11-26T23:47:57.736Z,21.20
2018-11-26T23:50:25.501Z,21.20
2018-11-26T23:52:53.250Z,21.10
2018-11-26T23:55:22.054Z,21.10
2018-11-26T23:57:49.876Z,21.10
